Time;durP1;ratioP1;P1;durP2;ratioP2;P2;SDS_P1;SDS_P2;PMS_P1;PMS_P2;Temp;Humidity;BMP_temperature;BMP_pressure;BME280_temperature;BME280_humidity;BME280_pressure;Samples;Min_cycle;Max_cycle;Signal;HPM_P1;HPM_P2
2022/07/01 00:01:21;;;;;;;28.10;14.55;;;;;;;15.60;78.77;101459.78;5006871;28;21285;-57
2022/07/01 00:03:50;;;;;;;28.48;14.50;;;;;;;15.53;78.86;101478.97;5008158;28;20501;-57
2022/07/01 00:06:16;;;;;;;28.00;14.23;;;;;;;15.50;78.81;101468.38;5009863;28;20135;-56
2022/07/01 00:08:42;;;;;;;26.02;14.35;;;;;;;15.43;79.12;101465.69;5010337;28;20128;-57
2022/07/01 00:11:07;;;;;;;27.45;13.90;;;;;;;15.42;79.02;101463.91;5008788;28;20113;-57
2022/07/01 00:13:33;;;;;;;29.00;13.98;;;;;;;15.40;78.92;101467.41;5007874;28;20025;-56
2022/07/01 00:15:59;;;;;;;29.17;13.88;;;;;;;15.30;78.99;101448.88;5004050;28;20108;-56
2022/07/01 00:18:24;;;;;;;28.23;13.73;;;;;;;15.29;78.93;101454.13;5006559;28;20531;-56
2022/07/01 00:20:50;;;;;;;26.27;13.10;;;;;;;15.30;78.72;101450.63;5009621;28;20037;-56
2022/07/01 00:23:17;;;;;;;26.73;13.23;;;;;;;15.27;78.73;101450.59;5009341;28;20033;-57
2022/07/01 00:25:43;;;;;;;25.75;13.18;;;;;;;15.25;78.69;101452.31;5006378;28;20072;-55
2022/07/01 00:28:08;;;;;;;26.85;13.38;;;;;;;15.22;78.89;101452.25;5007914;28;20543;-55
2022/07/01 00:30:34;;;;;;;26.77;13.93;;;;;;;15.17;79.06;101443.47;5008645;28;20025;-56
2022/07/01 00:32:59;;;;;;;27.98;13.80;;;;;;;15.18;79.36;101456.59;5008911;28;20473;-55
2022/07/01 00:35:24;;;;;;;29.73;14.52;;;;;;;15.12;79.89;101453.91;5006531;28;20061;-56
2022/07/01 00:37:50;;;;;;;28.95;14.32;;;;;;;15.10;80.10;101430.22;5007645;28;20473;-56
2022/07/01 00:40:15;;;;;;;31.80;14.32;;;;;;;15.11;80.04;101436.38;5009967;28;20049;-56
2022/07/01 00:42:42;;;;;;;30.98;13.95;;;;;;;15.11;80.47;101433.75;5009295;28;20041;-56
2022/07/01 00:45:11;;;;;;;30.40;14.75;;;;;;;15.07;80.55;101434.56;5008372;28;20037;-56
2022/07/01 00:47:37;;;;;;;27.40;14.57;;;;;;;15.12;80.70;101433.78;5006100;28;20065;-56
2022/07/01 00:50:08;;;;;;;31.58;15.15;;;;;;;15.13;80.73;101434.63;5006362;28;20033;-57
2022/07/01 00:52:34;;;;;;;31.02;14.48;;;;;;;15.15;80.11;101439.91;5009541;28;20053;-56
2022/07/01 00:55:03;;;;;;;31.38;14.63;;;;;;;15.09;80.23;101431.09;5010025;28;20362;-56
2022/07/01 00:57:34;;;;;;;30.42;14.85;;;;;;;15.08;80.90;101439.81;5007148;28;20437;-56
2022/07/01 01:00:07;;;;;;;33.55;16.38;;;;;;;15.08;81.17;101442.44;5005830;28;20030;-56
2022/07/01 01:02:33;;;;;;;32.42;14.90;;;;;;;15.07;80.79;101438.06;5008365;28;20096;-56
2022/07/01 01:04:58;;;;;;;31.83;14.77;;;;;;;15.06;80.39;101445.91;5007325;28;20409;-56
2022/07/01 01:07:24;;;;;;;31.17;15.13;;;;;;;15.01;80.92;101451.09;5008029;28;20032;-56
2022/07/01 01:09:50;;;;;;;30.10;14.80;;;;;;;15.03;80.74;101457.22;5007362;28;20551;-56
2022/07/01 01:12:16;;;;;;;30.42;14.98;;;;;;;15.03;81.27;101462.47;5009794;28;20038;-56
2022/07/01 01:14:45;;;;;;;34.00;14.55;;;;;;;15.01;81.06;101464.22;5008689;28;20420;-56
2022/07/01 01:17:10;;;;;;;34.28;16.45;;;;;;;15.01;81.83;101474.72;5006864;28;20029;-56
2022/07/01 01:19:35;;;;;;;30.85;14.75;;;;;;;14.99;81.38;101479.06;5009065;28;20492;-56
2022/07/01 01:22:01;;;;;;;33.53;14.98;;;;;;;14.95;81.74;101483.38;5007380;28;20052;-57
2022/07/01 01:24:26;;;;;;;30.63;16.00;;;;;;;14.93;81.61;101477.22;5008196;28;20033;-56
2022/07/01 01:26:51;;;;;;;36.88;16.38;;;;;;;14.90;81.89;101476.28;5009158;28;20175;-56
2022/07/01 01:29:17;;;;;;;32.95;16.15;;;;;;;14.91;81.75;101485.94;5007186;28;20416;-57
2022/07/01 01:31:42;;;;;;;32.97;16.25;;;;;;;14.89;81.68;101487.66;5004306;28;21226;-57
2022/07/01 01:34:07;;;;;;;33.22;15.63;;;;;;;14.89;81.71;101487.66;5009456;28;20030;-55
2022/07/01 01:36:33;;;;;;;36.22;16.40;;;;;;;14.85;82.49;101488.47;5009171;28;20467;-56
2022/07/01 01:39:19;;;;;;;37.72;16.98;;;;;;;14.85;81.97;101488.47;5008272;28;20055;-57
2022/07/01 01:41:45;;;;;;;35.80;16.25;;;;;;;14.77;82.31;101481.34;5005516;28;20456;-57
2022/07/01 01:44:11;;;;;;;37.45;16.40;;;;;;;14.78;82.29;101483.09;5006077;28;20429;-57
2022/07/01 01:46:37;;;;;;;33.40;16.20;;;;;;;14.76;82.85;101487.44;5008671;28;20660;-56
2022/07/01 01:49:04;;;;;;;35.95;16.92;;;;;;;14.75;82.84;101485.66;5001439;28;20578;-56
2022/07/01 01:51:29;;;;;;;37.67;16.85;;;;;;;14.74;83.44;101481.31;5006529;28;20033;-56
2022/07/01 01:53:55;;;;;;;38.13;17.27;;;;;;;14.74;83.43;101481.31;5008922;28;20030;-56
2022/07/01 01:56:21;;;;;;;35.45;17.50;;;;;;;14.77;83.04;101476.09;5008028;28;20033;-56
2022/07/01 01:58:46;;;;;;;39.97;18.13;;;;;;;14.77;82.95;101481.34;5007222;28;20030;-56
2022/07/01 02:01:13;;;;;;;37.90;17.92;;;;;;;14.80;82.72;101479.63;5007047;28;20088;-55
2022/07/01 02:03:40;;;;;;;37.90;17.40;;;;;;;14.78;83.02;101485.72;5004182;28;20042;-57
2022/07/01 02:06:07;;;;;;;40.42;18.05;;;;;;;14.75;83.14;101483.03;5008377;28;20088;-56
2022/07/01 02:08:33;;;;;;;42.03;18.90;;;;;;;14.74;83.34;101488.25;5005010;28;20033;-56
2022/07/01 02:10:59;;;;;;;41.78;19.20;;;;;;;14.72;83.21;101488.25;5009127;28;20137;-56
2022/07/01 02:13:24;;;;;;;46.50;20.02;;;;;;;14.70;83.88;101505.72;5007976;28;20101;-56
2022/07/01 02:15:50;;;;;;;41.03;19.63;;;;;;;14.70;83.15;101512.69;5008430;28;20021;-55
2022/07/01 02:18:15;;;;;;;43.60;19.85;;;;;;;14.70;83.39;101510.06;5003616;28;20125;-56
2022/07/01 02:20:41;;;;;;;44.65;19.52;;;;;;;14.72;83.33;101516.22;5009240;28;20074;-56
2022/07/01 02:23:07;;;;;;;47.25;19.73;;;;;;;14.74;83.16;101522.38;5007835;28;20485;-57
2022/07/01 02:25:34;;;;;;;42.42;19.80;;;;;;;14.74;83.29;101531.16;5008126;28;20038;-57
2022/07/01 02:28:00;;;;;;;43.47;20.38;;;;;;;14.75;83.00;101535.50;5006034;28;20409;-57
2022/07/01 02:30:26;;;;;;;45.53;20.15;;;;;;;14.73;83.70;101542.50;5006098;28;20558;-57
2022/07/01 02:32:51;;;;;;;43.60;19.90;;;;;;;14.71;83.17;101522.31;5005224;28;20112;-57
2022/07/01 02:35:16;;;;;;;44.58;19.98;;;;;;;14.69;83.43;101503.06;5011341;28;20117;-57
2022/07/01 02:37:43;;;;;;;41.38;19.85;;;;;;;14.69;83.25;101479.47;5012166;28;20469;-58
2022/07/01 02:40:09;;;;;;;45.10;19.70;;;;;;;14.66;82.97;101482.91;5011791;28;20469;-57
2022/07/01 02:42:35;;;;;;;46.38;19.70;;;;;;;14.63;82.55;101495.06;5012905;28;20057;-57
2022/07/01 02:45:02;;;;;;;44.80;20.15;;;;;;;14.51;83.61;101501.84;5010363;28;20456;-57
2022/07/01 02:47:35;;;;;;;44.63;21.08;;;;;;;14.46;83.51;101494.75;5009217;28;20160;-57
2022/07/01 02:50:02;;;;;;;47.38;19.90;;;;;;;14.47;83.72;101509.59;5011632;28;20041;-57
2022/07/01 02:52:27;;;;;;;44.45;20.35;;;;;;;14.49;83.96;101511.41;5007369;28;20084;-57
2022/07/01 02:54:53;;;;;;;46.45;19.92;;;;;;;14.49;84.42;101505.28;5010256;28;20022;-57
2022/07/01 02:57:18;;;;;;;45.08;20.38;;;;;;;14.50;83.96;101513.19;5012250;28;20523;-57
2022/07/01 02:59:43;;;;;;;47.40;20.33;;;;;;;14.54;83.59;101520.25;5008427;28;20389;-57
2022/07/01 03:02:09;;;;;;;45.72;20.33;;;;;;;14.56;83.53;101520.28;5011402;28;20470;-57
2022/07/01 03:04:34;;;;;;;46.08;20.90;;;;;;;14.56;84.23;101512.41;5006550;28;20545;-57
2022/07/01 03:06:59;;;;;;;48.33;21.45;;;;;;;14.56;83.79;101507.19;5013226;28;20034;-57
2022/07/01 03:09:25;;;;;;;51.35;21.33;;;;;;;14.56;83.65;101518.53;5014324;28;20030;-57
2022/07/01 03:11:50;;;;;;;48.80;21.83;;;;;;;14.51;84.15;101514.97;5008943;28;20014;-57
2022/07/01 03:14:16;;;;;;;53.13;23.60;;;;;;;14.46;83.84;101510.50;5009444;28;20033;-58
2022/07/01 03:16:41;;;;;;;56.20;23.70;;;;;;;14.42;83.66;101526.16;5011287;28;20028;-57
2022/07/01 03:19:06;;;;;;;57.83;25.08;;;;;;;14.38;83.92;101526.06;5008994;28;20026;-57
2022/07/01 03:21:32;;;;;;;55.58;24.25;;;;;;;14.36;83.96;101518.16;5008865;28;20096;-56
2022/07/01 03:23:58;;;;;;;56.75;24.98;;;;;;;14.36;84.41;101514.66;5012029;28;20497;-56
2022/07/01 03:26:23;;;;;;;56.83;25.35;;;;;;;14.37;84.48;101521.69;5008839;28;20084;-57
2022/07/01 03:28:49;;;;;;;59.50;24.38;;;;;;;14.37;84.04;101527.81;5011339;28;20108;-57
2022/07/01 03:31:14;;;;;;;58.95;25.45;;;;;;;14.36;84.73;101518.16;5010877;28;20036;-56
2022/07/01 03:33:39;;;;;;;56.40;24.70;;;;;;;14.37;84.26;101519.94;5009027;28;20026;-57
2022/07/01 03:36:05;;;;;;;57.50;24.95;;;;;;;14.42;84.56;101525.25;5008667;28;20040;-57
2022/07/01 03:38:30;;;;;;;55.60;23.83;;;;;;;14.46;84.14;101548.06;5009621;28;20034;-57
2022/07/01 03:40:55;;;;;;;60.65;24.15;;;;;;;14.44;84.05;101553.28;5010828;28;20026;-56
2022/07/01 03:43:21;;;;;;;54.25;22.65;;;;;;;14.47;83.82;101559.44;5011354;28;20065;-56
2022/07/01 03:45:46;;;;;;;54.92;25.15;;;;;;;14.49;83.94;101557.75;5009410;28;20125;-56
2022/07/01 03:48:12;;;;;;;52.65;22.95;;;;;;;14.50;84.24;101556.91;5007679;28;20021;-56
2022/07/01 03:50:37;;;;;;;60.70;24.65;;;;;;;14.49;83.80;101568.22;5008062;28;20033;-55
2022/07/01 03:55:46;;;;;;;58.03;24.83;;;;;;;14.47;84.10;101577.78;5007718;28;20056;-56
2022/07/01 03:58:12;;;;;;;62.17;25.88;;;;;;;14.42;83.90;101572.47;5010733;28;20502;-56
2022/07/01 04:00:38;;;;;;;60.17;25.42;;;;;;;14.31;84.40;101595.84;5007862;28;20033;-56
2022/07/01 04:03:04;;;;;;;59.47;24.95;;;;;;;14.28;84.29;101590.56;5009505;28;20032;-56
2022/07/01 04:05:33;;;;;;;58.75;26.45;;;;;;;14.26;84.42;101598.38;5010047;28;20041;-56
2022/07/01 04:07:58;;;;;;;59.93;25.40;;;;;;;14.28;84.13;101595.81;5006863;28;20033;-56
2022/07/01 04:10:24;;;;;;;56.15;25.25;;;;;;;14.27;84.31;101596.66;5009398;28;20385;-56
2022/07/01 04:12:49;;;;;;;63.75;26.42;;;;;;;14.26;84.46;101581.75;5007981;28;20413;-56
2022/07/01 04:15:14;;;;;;;61.22;26.60;;;;;;;14.26;84.14;101579.13;5009579;28;20033;-56
2022/07/01 04:17:40;;;;;;;60.95;26.55;;;;;;;14.23;84.02;101574.72;5010361;28;20041;-57
2022/07/01 04:20:07;;;;;;;68.10;28.10;;;;;;;14.22;84.33;101590.41;5009974;28;20444;-56
2022/07/01 04:22:32;;;;;;;69.15;27.77;;;;;;;14.23;84.62;101589.56;5010670;28;20473;-57
2022/07/01 04:24:58;;;;;;;68.18;28.23;;;;;;;14.24;84.43;101586.09;5010581;28;20465;-57
2022/07/01 04:27:23;;;;;;;70.07;28.75;;;;;;;14.24;84.78;101579.09;5009128;28;20045;-56
2022/07/01 04:29:49;;;;;;;74.40;29.13;;;;;;;14.24;84.53;101575.63;5008922;28;20068;-56
2022/07/01 04:32:14;;;;;;;74.55;28.70;;;;;;;14.20;84.58;101587.75;5009800;28;20393;-56
2022/07/01 04:34:39;;;;;;;67.80;27.45;;;;;;;14.20;83.89;101586.88;5010395;28;20057;-56
2022/07/01 04:37:05;;;;;;;69.80;26.90;;;;;;;14.18;84.12;101583.31;5007060;28;20499;-57
2022/07/01 04:39:30;;;;;;;61.50;24.88;;;;;;;14.20;84.18;101587.75;5009147;28;20057;-57
2022/07/01 04:42:01;;;;;;;63.10;24.77;;;;;;;14.23;84.03;101594.81;5009841;28;20042;-57
2022/07/01 04:44:28;;;;;;;61.00;24.80;;;;;;;14.20;84.10;101600.88;5010123;28;20472;-57
2022/07/01 04:46:54;;;;;;;51.90;22.25;;;;;;;14.19;83.98;101606.06;5008887;28;20044;-57
2022/07/01 04:49:19;;;;;;;55.10;23.20;;;;;;;14.18;84.33;101609.53;5006748;28;20521;-57
2022/07/01 04:51:45;;;;;;;47.50;20.50;;;;;;;14.18;84.31;101605.19;5009532;28;20109;-57
2022/07/01 04:54:10;;;;;;;52.30;22.35;;;;;;;14.20;84.34;101603.47;5007690;28;20040;-57
2022/07/01 04:56:37;;;;;;;49.45;20.70;;;;;;;14.23;84.59;101600.91;5006310;28;20072;-57
2022/07/01 04:59:03;;;;;;;47.90;19.55;;;;;;;14.26;84.40;101605.34;5006320;28;20041;-57
2022/07/01 05:01:29;;;;;;;46.03;19.98;;;;;;;14.26;83.86;101594.88;5008456;28;20022;-57
2022/07/01 05:03:55;;;;;;;40.10;18.50;;;;;;;14.26;84.14;101587.91;5007579;28;20050;-56
2022/07/01 05:06:20;;;;;;;41.17;18.88;;;;;;;14.28;83.94;101598.41;5009412;28;20248;-57
2022/07/01 05:08:46;;;;;;;38.28;17.55;;;;;;;14.27;84.30;101608.00;5005876;28;20560;-57
2022/07/01 05:11:11;;;;;;;39.53;17.48;;;;;;;14.29;84.33;101607.16;5005771;28;20037;-57
2022/07/01 05:13:36;;;;;;;42.70;18.10;;;;;;;14.27;83.92;101613.25;5009337;28;20030;-57
2022/07/01 05:16:03;;;;;;;39.05;17.40;;;;;;;14.27;84.45;101617.63;5009672;28;20025;-57
2022/07/01 05:23:56;;;;;;;41.75;18.50;;;;;;;14.32;84.60;101607.22;5007074;28;20119;-56
2022/07/01 05:26:22;;;;;;;35.92;17.10;;;;;;;14.34;84.65;101611.66;5007098;28;20061;-56
2022/07/01 05:28:48;;;;;;;36.33;16.65;;;;;;;14.35;84.05;101618.66;5024344;28;20030;-56
2022/07/01 05:31:13;;;;;;;40.70;17.38;;;;;;;14.36;84.11;101609.06;5020895;28;20029;-56
2022/07/01 05:33:39;;;;;;;36.10;17.23;;;;;;;14.32;84.52;101601.97;5014373;28;20026;-56
2022/07/01 05:36:05;;;;;;;33.10;16.05;;;;;;;14.31;84.21;101606.34;5007763;28;20436;-55
2022/07/01 05:38:30;;;;;;;32.58;15.68;;;;;;;14.30;84.27;101611.56;5005631;28;20564;-57
2022/07/01 05:40:56;;;;;;;32.33;16.30;;;;;;;14.30;84.31;101601.94;5010609;28;20412;-57
2022/07/01 05:43:21;;;;;;;37.92;17.10;;;;;;;14.31;84.30;101606.34;5007792;28;20429;-56
2022/07/01 05:45:47;;;;;;;40.63;16.67;;;;;;;14.29;84.52;101601.91;5011883;28;20033;-57
2022/07/01 05:48:12;;;;;;;39.60;17.23;;;;;;;14.28;84.14;101601.03;5005792;28;20041;-55
2022/07/01 05:50:39;;;;;;;36.72;16.75;;;;;;;14.27;83.87;101602.75;5012849;28;20021;-57
2022/07/01 05:53:04;;;;;;;41.05;17.98;;;;;;;14.28;84.13;101601.03;5019555;28;20441;-57
2022/07/01 05:55:30;;;;;;;38.63;17.33;;;;;;;14.30;84.02;101601.94;5004888;28;20191;-57
2022/07/01 05:57:55;;;;;;;37.25;17.63;;;;;;;14.32;84.21;101613.34;5021731;28;20039;-57
2022/07/01 06:00:20;;;;;;;37.90;17.88;;;;;;;14.33;84.60;101617.72;5013475;28;20097;-57
2022/07/01 06:02:46;;;;;;;38.78;17.05;;;;;;;14.36;84.46;101609.94;5007691;28;20539;-56
2022/07/01 06:05:13;;;;;;;37.83;17.88;;;;;;;14.38;85.20;101599.47;5006431;28;20429;-57
2022/07/01 06:07:40;;;;;;;39.45;17.88;;;;;;;14.42;85.04;101609.16;4999687;28;20073;-57
2022/07/01 06:10:06;;;;;;;38.65;17.52;;;;;;;14.44;85.20;101599.63;5009057;28;20014;-57
2022/07/01 06:12:32;;;;;;;41.45;18.42;;;;;;;14.50;85.05;101609.34;5008500;28;20101;-57
2022/07/01 06:14:57;;;;;;;36.63;18.30;;;;;;;14.49;84.51;101613.69;5003945;28;20171;-56
2022/07/01 06:17:22;;;;;;;38.25;18.13;;;;;;;14.51;84.29;101613.72;5002404;28;20477;-56
2022/07/01 06:19:48;;;;;;;36.75;17.75;;;;;;;14.56;84.31;101606.84;5002455;28;20477;-58
2022/07/01 06:22:16;;;;;;;38.40;16.67;;;;;;;14.58;84.35;101610.34;5000984;28;20038;-57
2022/07/01 06:24:42;;;;;;;38.55;16.83;;;;;;;14.60;83.92;101616.53;4999590;28;20178;-57
2022/07/01 06:27:07;;;;;;;37.08;16.33;;;;;;;14.62;83.47;101606.09;5003161;28;20619;-58
2022/07/01 06:29:32;;;;;;;36.28;16.27;;;;;;;14.62;83.71;101601.72;5005085;28;20037;-58
2022/07/01 06:31:58;;;;;;;37.78;16.98;;;;;;;14.64;83.51;101602.63;5003703;28;20468;-57
2022/07/01 06:34:24;;;;;;;32.50;16.13;;;;;;;14.70;83.29;101607.09;4999767;28;20091;-57
2022/07/01 06:36:49;;;;;;;34.67;16.58;;;;;;;14.70;82.46;101596.63;5005014;28;20033;-57
2022/07/01 06:39:14;;;;;;;35.03;16.73;;;;;;;14.74;82.86;101606.31;5003556;28;20030;-57
2022/07/01 06:41:40;;;;;;;36.00;17.55;;;;;;;14.76;83.03;101605.50;5006355;28;20445;-57
2022/07/01 06:44:05;;;;;;;36.55;16.20;;;;;;;14.82;82.73;101598.59;5008497;28;20112;-57
2022/07/01 06:46:31;;;;;;;33.88;16.75;;;;;;;14.84;80.55;101607.38;5005939;28;20046;-58
2022/07/01 06:48:58;;;;;;;32.58;15.73;;;;;;;14.84;81.34;101607.38;5008272;28;20037;-58
2022/07/01 06:51:23;;;;;;;37.60;15.95;;;;;;;14.87;82.25;101597.81;5004635;28;20033;-58
2022/07/01 06:53:49;;;;;;;32.17;15.95;;;;;;;14.95;82.28;101592.72;5002687;28;20029;-58
2022/07/01 06:56:16;;;;;;;32.17;16.58;;;;;;;15.01;82.31;101600.69;5002996;28;20036;-57
2022/07/01 06:58:41;;;;;;;31.98;15.68;;;;;;;15.08;81.96;101599.06;5007779;28;20144;-58
2022/07/01 07:01:06;;;;;;;29.50;14.88;;;;;;;15.12;80.57;101599.13;5006048;28;20116;-58
2022/07/01 07:03:32;;;;;;;26.63;13.90;;;;;;;15.21;81.35;101605.41;5007074;28;20053;-57
2022/07/01 07:06:02;;;;;;;31.83;14.00;;;;;;;15.26;80.88;101608.97;5008361;28;20029;-57
2022/07/01 07:08:28;;;;;;;30.05;13.93;;;;;;;15.34;81.42;101603.84;5009962;28;20029;-57
2022/07/01 07:10:54;;;;;;;27.83;13.15;;;;;;;15.42;80.20;101618.00;5011871;28;20544;-57
2022/07/01 07:13:19;;;;;;;25.33;12.93;;;;;;;15.46;78.86;101625.06;5010139;28;20025;-57
2022/07/01 07:15:45;;;;;;;26.48;12.70;;;;;;;15.53;79.41;101637.44;5017406;28;20026;-57
2022/07/01 07:18:10;;;;;;;26.50;12.50;;;;;;;15.59;79.13;101645.41;5013407;28;20029;-58
2022/07/01 07:20:35;;;;;;;24.80;11.50;;;;;;;15.63;78.28;101646.34;5005953;28;20401;-58
2022/07/01 07:23:01;;;;;;;21.58;10.70;;;;;;;15.63;77.69;101641.97;5007126;28;20335;-57
2022/07/01 07:25:27;;;;;;;20.42;9.90;;;;;;;15.67;77.41;101636.75;5010646;28;20095;-57
2022/07/01 07:27:52;;;;;;;17.50;9.15;;;;;;;15.68;75.30;101628.91;5013193;28;20025;-57
2022/07/01 07:30:18;;;;;;;21.70;9.13;;;;;;;15.69;75.42;101635.06;5011148;28;20405;-57
2022/07/01 07:32:44;;;;;;;22.20;8.98;;;;;;;15.68;74.88;101636.78;5010546;28;20025;-55
2022/07/01 07:35:10;;;;;;;18.90;8.52;;;;;;;15.67;75.05;101637.66;5006581;28;20049;-56
2022/07/01 07:37:35;;;;;;;17.00;8.20;;;;;;;15.72;76.19;101638.59;5009477;28;20021;-57
2022/07/01 07:40:03;;;;;;;16.70;8.02;;;;;;;15.76;75.41;101644.81;5009056;28;20026;-57
2022/07/01 07:42:29;;;;;;;18.83;8.18;;;;;;;15.80;74.98;101647.53;5013649;28;20030;-57
2022/07/01 07:44:54;;;;;;;18.98;8.20;;;;;;;15.82;74.31;101650.16;5010038;28;20029;-56
2022/07/01 07:47:20;;;;;;;18.38;7.80;;;;;;;15.85;74.84;101649.34;5008758;28;20356;-55
2022/07/01 07:49:45;;;;;;;13.07;7.40;;;;;;;15.88;75.49;101659.91;5007639;28;20113;-55
2022/07/01 07:52:11;;;;;;;17.77;7.38;;;;;;;15.93;75.68;101652.94;5007820;28;20030;-55
2022/07/01 07:54:37;;;;;;;15.60;6.72;;;;;;;16.01;74.60;101651.31;5007696;28;20014;-55
2022/07/01 07:57:03;;;;;;;11.25;6.43;;;;;;;16.06;74.78;101660.16;5011121;28;20025;-56
2022/07/01 07:59:28;;;;;;;11.85;5.72;;;;;;;16.12;74.17;101654.97;5012213;28;20024;-55
2022/07/01 08:01:54;;;;;;;11.38;5.40;;;;;;;16.19;74.49;101663.81;5004968;28;20030;-56
2022/07/01 08:04:20;;;;;;;11.18;5.32;;;;;;;16.25;72.47;101660.38;5004519;28;20211;-55
2022/07/01 08:06:45;;;;;;;11.48;4.13;;;;;;;16.31;71.76;101666.63;5011397;28;20026;-56
2022/07/01 08:09:10;;;;;;;8.32;3.75;;;;;;;16.37;70.03;101665.81;5011103;28;20025;-56
2022/07/01 08:11:36;;;;;;;11.68;4.35;;;;;;;16.40;67.66;101673.75;5012613;28;20041;-54
2022/07/01 08:14:01;;;;;;;14.57;4.60;;;;;;;16.41;69.06;101677.25;5010265;28;20515;-56
2022/07/01 08:16:26;;;;;;;9.73;4.30;;;;;;;16.48;71.42;101672.13;5007346;28;20448;-56
2022/07/01 08:18:52;;;;;;;8.70;3.40;;;;;;;16.52;69.48;101673.03;5005674;28;20493;-56
2022/07/01 08:21:17;;;;;;;7.20;3.35;;;;;;;16.60;70.49;101678.41;5006813;28;20121;-56
2022/07/01 08:23:43;;;;;;;9.43;4.10;;;;;;;16.70;71.89;101675.00;5008324;28;20072;-56
2022/07/01 08:26:08;;;;;;;7.13;3.67;;;;;;;16.81;70.43;101683.88;5009967;28;20113;-56
2022/07/01 08:28:33;;;;;;;8.32;3.40;;;;;;;16.89;69.99;101689.28;5009095;28;20025;-56
2022/07/01 08:30:59;;;;;;;6.00;2.70;;;;;;;16.95;67.87;101694.59;5004652;28;20038;-56
2022/07/01 08:33:25;;;;;;;7.80;3.20;;;;;;;17.01;67.75;101685.91;5005115;28;20026;-56
2022/07/01 08:35:50;;;;;;;6.60;2.67;;;;;;;17.07;67.45;101691.22;5011405;28;20161;-56
2022/07/01 08:38:16;;;;;;;8.50;2.50;;;;;;;17.14;68.16;101693.03;5010277;28;20038;-56
2022/07/01 08:40:41;;;;;;;8.70;3.22;;;;;;;17.24;68.32;101690.53;5008706;28;20025;-55
2022/07/01 08:43:07;;;;;;;6.82;2.40;;;;;;;17.36;68.50;101688.00;5008445;28;20095;-56
2022/07/01 08:45:37;;;;;;;5.90;2.80;;;;;;;17.41;67.47;101702.09;5010807;28;20491;-56
2022/07/01 08:48:02;;;;;;;8.15;2.90;;;;;;;17.48;67.30;101692.47;5007767;28;20535;-56
2022/07/01 08:50:39;;;;;;;6.57;2.50;;;;;;;17.56;66.64;101710.13;5000050;28;20029;-56
2022/07/01 08:53:06;;;;;;;6.18;2.83;;;;;;;17.62;63.62;101705.78;5007281;28;20120;-56
2022/07/01 08:55:32;;;;;;;6.22;2.95;;;;;;;17.63;64.76;101718.97;5005429;28;20041;-56
2022/07/01 08:57:57;;;;;;;7.88;3.10;;;;;;;17.65;63.54;101716.34;5007726;28;20034;-56
2022/07/01 09:00:30;;;;;;;7.60;3.28;;;;;;;17.71;65.22;101721.66;5003157;28;20026;-56
2022/07/01 09:03:03;;;;;;;7.03;3.30;;;;;;;17.78;63.69;101735.78;5008234;28;20092;-56
2022/07/01 09:05:30;;;;;;;6.30;3.50;;;;;;;17.81;62.55;101726.13;5009771;28;20038;-56
2022/07/01 09:08:04;;;;;;;6.97;3.65;;;;;;;17.85;62.45;101717.38;5007985;28;20026;-56
2022/07/01 09:10:34;;;;;;;8.65;4.47;;;;;;;17.89;63.58;101715.66;5019448;28;20026;-56
2022/07/01 09:13:07;;;;;;;9.10;4.20;;;;;;;17.92;62.67;101715.72;5008957;28;20038;-56
2022/07/01 09:15:33;;;;;;;10.63;4.07;;;;;;;17.98;63.25;101720.16;5023663;28;20025;-55
2022/07/01 09:18:12;;;;;;;6.80;3.10;;;;;;;18.05;62.32;101706.13;5008870;28;20440;-56
2022/07/01 09:20:43;;;;;;;8.88;3.60;;;;;;;18.08;60.38;101719.34;5007807;28;20033;-56
2022/07/01 09:23:12;;;;;;;9.15;4.05;;;;;;;18.11;61.26;101719.34;5014453;28;20026;-55
2022/07/01 09:25:47;;;;;;;9.20;3.50;;;;;;;18.21;62.67;101718.53;5014767;28;20108;-59
2022/07/01 09:28:23;;;;;;;10.02;3.10;;;;;;;18.30;62.02;101722.09;5017474;28;20022;-58
2022/07/01 09:30:50;;;;;;;7.03;3.17;;;;;;;18.38;62.95;101718.63;5009304;28;20493;-58
2022/07/01 09:33:18;;;;;;;7.57;3.20;;;;;;;18.47;60.89;101720.44;5017654;28;20666;-58
2022/07/01 09:35:46;;;;;;;6.60;3.28;;;;;;;18.51;62.13;101721.31;5006903;28;20030;-58
2022/07/01 09:38:13;;;;;;;7.03;3.38;;;;;;;18.54;58.63;101726.66;5004159;28;20040;-58
2022/07/01 09:40:54;;;;;;;5.13;3.20;;;;;;;18.59;61.32;101725.75;5010958;28;20108;-58
2022/07/01 09:43:27;;;;;;;8.20;3.35;;;;;;;18.62;59.92;101730.19;5006807;28;20026;-58
2022/07/01 09:46:05;;;;;;;7.15;3.10;;;;;;;18.64;59.03;101739.00;5006007;28;20076;-58
2022/07/01 09:48:34;;;;;;;5.70;2.60;;;;;;;18.65;56.83;101729.31;5009635;28;20030;-58
2022/07/01 09:51:00;;;;;;;6.73;2.73;;;;;;;18.63;56.58;101737.22;5010395;28;20524;-58
2022/07/01 09:53:26;;;;;;;8.10;2.70;;;;;;;18.63;57.10;101737.22;5015235;28;20287;-59
2022/07/01 09:55:52;;;;;;;8.30;2.60;;;;;;;18.66;58.68;101742.53;5016457;28;20033;-59
2022/07/01 09:58:18;;;;;;;7.32;2.70;;;;;;;18.73;60.53;101740.81;5010118;28;20040;-54
2022/07/01 10:00:44;;;;;;;11.13;3.28;;;;;;;18.76;59.75;101732.88;5007966;28;20026;-54
2022/07/01 10:03:10;;;;;;;10.73;3.65;;;;;;;18.79;59.52;101747.88;5008694;28;20037;-53
2022/07/01 10:05:47;;;;;;;7.32;2.85;;;;;;;18.82;59.68;101732.91;5009766;28;20045;-53
2022/07/01 10:08:30;;;;;;;5.57;2.78;;;;;;;18.88;60.28;101740.88;5009178;28;20080;-53
2022/07/01 10:11:25;;;;;;;5.80;2.70;;;;;;;18.94;58.21;101743.56;5006704;28;20030;-48
2022/07/01 10:13:51;;;;;;;8.13;2.67;;;;;;;19.03;59.58;101749.72;5004571;28;20038;-54
2022/07/01 10:16:17;;;;;;;9.00;2.90;;;;;;;19.08;55.73;101750.63;5008546;28;20102;-50
2022/07/01 10:18:43;;;;;;;7.43;2.35;;;;;;;19.16;58.17;101764.75;5009334;28;20485;-50
2022/07/01 10:21:08;;;;;;;4.25;2.10;;;;;;;19.18;56.83;101764.75;5010361;28;20041;-53
2022/07/01 10:23:43;;;;;;;4.60;2.30;;;;;;;19.21;57.08;101749.78;5008251;28;20045;-51
2022/07/01 10:26:11;;;;;;;6.60;2.28;;;;;;;19.25;55.94;101761.25;5004776;28;20033;-54
2022/07/01 10:28:46;;;;;;;5.93;2.30;;;;;;;19.31;56.09;101773.59;5008050;28;20028;-59
2022/07/01 10:31:17;;;;;;;6.13;2.00;;;;;;;19.33;57.08;101769.19;5009496;28;20045;-62
2022/07/01 10:33:55;;;;;;;5.85;2.90;;;;;;;19.36;57.25;101771.84;5009785;28;20043;-58
2022/07/01 10:36:29;;;;;;;6.35;2.42;;;;;;;19.38;56.84;101770.97;5007494;28;20041;-57
2022/07/01 10:39:06;;;;;;;5.47;2.28;;;;;;;19.33;54.65;101782.41;5005368;28;20022;-58
2022/07/01 10:41:52;;;;;;;7.00;2.20;;;;;;;19.32;55.68;101768.31;5005543;28;20262;-58
2022/07/01 10:44:17;;;;;;;5.78;2.60;;;;;;;19.31;55.21;101763.03;5005682;28;20033;-59
2022/07/01 10:46:49;;;;;;;6.60;2.20;;;;;;;19.36;57.48;101767.41;5004242;28;20037;-59
2022/07/01 10:49:16;;;;;;;7.25;3.28;;;;;;;19.45;57.21;101767.44;5004727;28;20034;-59
2022/07/01 10:51:49;;;;;;;9.43;2.28;;;;;;;19.57;57.17;101771.88;5003285;28;20037;-59
2022/07/01 10:54:45;;;;;;;8.48;2.63;;;;;;;19.69;57.40;101767.47;5007300;28;20088;-59
2022/07/01 10:57:16;;;;;;;5.57;2.20;;;;;;;19.79;57.57;101756.91;5000748;28;20041;-59
2022/07/01 10:59:48;;;;;;;6.75;2.20;;;;;;;19.96;58.29;101756.06;5011594;28;20033;-48
2022/07/01 11:02:26;;;;;;;6.47;2.13;;;;;;;20.06;57.77;101755.16;5020199;28;20102;-48
2022/07/01 11:05:15;;;;;;;5.20;2.00;;;;;;;20.16;57.15;101758.69;5010534;28;20729;-49
2022/07/01 11:07:45;;;;;;;5.38;2.17;;;;;;;20.15;53.61;101760.41;5003367;28;20509;-49
2022/07/01 11:10:14;;;;;;;5.63;2.10;;;;;;;20.18;55.95;101750.75;5010751;28;20109;-50
2022/07/01 11:12:40;;;;;;;6.95;2.00;;;;;;;20.25;54.96;101749.84;5012023;28;20032;-51
2022/07/01 11:15:07;;;;;;;6.90;2.22;;;;;;;20.21;53.04;101743.66;5011868;28;20025;-48
2022/07/01 11:17:33;;;;;;;9.73;2.22;;;;;;;20.25;55.76;101742.78;5023678;28;20037;-51
2022/07/01 11:20:02;;;;;;;6.20;2.22;;;;;;;20.31;54.75;101740.09;5012265;28;20030;-51
2022/07/01 11:22:30;;;;;;;6.68;2.40;;;;;;;20.32;54.79;101748.94;5012846;28;20029;-50